Webcam op het Zuiden Meer informatie Webcam op het Zuiden


Webcam op het Westen Meer informatie Webcam op het Westen


Onweer radar Meer informatie blitzortung!


waarschuwing voor winterse neerslag  rain snow radar


Lokaal brand risico:
CBI


Regionaal brand risico: Meer informatie


Lokaal brand risico:
Gebaseerd op actuele waarde
CBI


Bezoek ook deze websites:

Template documentation
and downloads

And another site



Sneeuw/IJzel/Bevriezing van: 03-12-2021 05:00 tot: 09:00 waarschuwing voor: Sneeuw/IJzel/Bevriezing niveau: Geel info button
Lokaal glad wegens bevriezing van natte weggedeeltes of een enkele winterse bui.Kans op gladheid.Alle verkeersdeelnemers kunnen hinder ondervinden.Pas uw rijgedrag aan.Volg weerberichten en waarschuwingen.

METAR rapporten vliegvelden

   
ETWM - Meppen, Germany
Afstand tot: O 29 km
Gewijzigd: 03-12-2021 05:20
  
  
   Wind: ZZW 13 km/h
Wind: ZZW 13 km/h
Temperatuur: 0°C
Voelt als: -4°C
Dauwpunt: -1°C
Vochtigheid: 93%
Barometer: 1007 hPa
ETWM 030420Z AUTO 20007KT //// // ////// M00/M01 Q1007 ///
EHGG - Groningen/Eelde, Netherlands
Afstand tot: NNW 47 km
Gewijzigd: 03-12-2021 05:25
Gedeeltelijk bewolkt  
Gedeeltelijk bewolkt  
   Wind: ZZW 14.8 km/h
Wind: ZZW 14.8 km/h
Temperatuur: 1°C
Voelt als: -3°C
Dauwpunt: 0°C
Vochtigheid: 93%
Barometer: 1006 hPa
Bewolking: Gedeeltelijk bewolkt
Zicht: meer dan 10 km
Bewolking: Gedeeltelijk bewolkt
EHGG 030425Z AUTO 21008KT 9999 NSC 01/00 Q1006
EDDG - Muenster/Osnabru, Germany
Afstand tot: ZO 87 km
Gewijzigd: 03-12-2021 05:20
Nevel, Bewolking  
Nevel, Bewolking  
   Wind: ZZW 14.8 km/h
Wind: ZZW 14.8 km/h
Temperatuur: 0°C
Voelt als: -4°C
Dauwpunt: 0°C
Vochtigheid: 100%
Barometer: 1009 hPa
Bewolking: Bewolking
Zicht: 3 km
Bewolking: Bewolking 300 ft
EDDG 030420Z 21008KT 180V240 2600 BR OVC003 00/M00 Q1009 BECMG 4500
EHLW - Leeuwarden Rnlaf, Netherlands
Afstand tot: NW 93 km
Gewijzigd: 03-12-2021 05:25
Grotendeels bewolkt  
Grotendeels bewolkt  
   Wind: ZZW 14.8 km/h
Wind: ZZW 14.8 km/h
Temperatuur: 2°C
Voelt als: -2°C
Dauwpunt: 1°C
Vochtigheid: 93%
Barometer: 1006 hPa
Bewolking: Grotendeels bewolkt
Zicht: meer dan 10 km
Bewolking: Gedeeltelijk bewolkt 5100 ft,
Grotendeels bewolkt 5700 ft,
Grotendeels bewolkt 8200 ft
EHLW 030425Z AUTO 21008KT 9999 SCT051 BKN057 BKN082 02/01 Q1006 BLU
ETNT - Wittmundhaven(Ga, Germany
Afstand tot: NNO 100 km
Gewijzigd: 03-12-2021 05:20
Grotendeels bewolkt  
Grotendeels bewolkt  
   Wind: ZW 13 km/h
Wind: ZW 13 km/h
Temperatuur: 2°C
Voelt als: -2°C
Dauwpunt: 0°C
Vochtigheid: 87%
Barometer: 1005 hPa
Bewolking: Grotendeels bewolkt
Zicht: meer dan 10 km
Bewolking: Grotendeels bewolkt 13000 ft
ETNT 030420Z 22007KT 9999 BKN130 02/00 Q1005 BLU
ETND - Diepholz (ger-Af, Germany
Afstand tot: O 104 km
Gewijzigd: 02-12-2021 15:20
Verouderd
Grotendeels bewolkt  
Grotendeels bewolkt  
   Wind: NNO 3.7 km/h
Wind: NNO 3.7 km/h
Temperatuur: 1°C
Dauwpunt: -1°C
Vochtigheid: 87%
Barometer: 1002 hPa
Bewolking: Grotendeels bewolkt
Zicht: meer dan 10 km
Bewolking: Licht bewolkt 700 ft,
Grotendeels bewolkt 1500 ft
ETND 021420Z 03002KT 9999 FEW007CB BKN015 01/M01 Q1002 RESHSN WHT
ETNT - Wittmundhaven(Ga, Germany
Afstand tot: NNO 102 km
Gewijzigd: 03-12-2021 05:20
Grotendeels bewolkt  
Grotendeels bewolkt  
   Wind: ZW 13 km/h
Wind: ZW 13 km/h
Temperatuur: 2°C
Voelt als: -2°C
Dauwpunt: 0°C
Vochtigheid: 87%
Barometer: 1005 hPa
Bewolking: Grotendeels bewolkt
Zicht: meer dan 10 km
Bewolking: Grotendeels bewolkt 13000 ft
ETNT 030420Z 22007KT 9999 BKN130 02/00 Q1005 BLU
EHDL - Deelen Rnlafb, Netherlands
Afstand tot: ZW 103 km
Gewijzigd: 03-12-2021 05:25
Nevel, Bewolking  
Nevel, Bewolking  
   Wind: ZZW 14.8 km/h
Wind: ZZW 14.8 km/h
Temperatuur: 0°C
Voelt als: -4°C
Dauwpunt: 0°C
Vochtigheid: 100%
Barometer: 1009 hPa
Bewolking: Bewolking
Zicht: 3 km
Bewolking: Licht bewolkt 100 ft,
Bewolking 200 ft
EHDL 030425Z AUTO 20008KT 150V250 3000 R20/1200D BR FEW001 OVC002 00/00 Q1009 AMB
EHMA - Awg-1 Sea, Netherlands
Afstand tot: NW 105 km
Gewijzigd: 03-12-2021 05:25
Gedeeltelijk bewolkt  
Gedeeltelijk bewolkt  
   Wind: ZW 27.8 km/h
Wind: ZW 27.8 km/h
Temperatuur: 5°C
Voelt als: 0°C
Dauwpunt: 2°C
Vochtigheid: 81%
Barometer: 1005 hPa
Bewolking: Gedeeltelijk bewolkt
Zicht: meer dan 10 km
Bewolking: Gedeeltelijk bewolkt
EHMA 030425Z AUTO 22015KT 9999 NSC 05/02 Q1005
EDDW - Bremen, Germany
Afstand tot: ONO 135 km
Gewijzigd: 03-12-2021 05:20
Helder  
Helder  
   Wind: WZW 14.8 km/h
Wind: WZW 14.8 km/h
Temperatuur: -1°C
Voelt als: -6°C
Dauwpunt: -1°C
Vochtigheid: 100%
Barometer: 1007 hPa
Zicht: meer dan 10 km
Bewolking: Helder
EDDW 030420Z 24008KT CAVOK M01/M01 Q1007 NOSIG
EHVL - Vlieland Island, Netherlands
Afstand tot: WNW 138 km
Gewijzigd: 03-12-2021 05:26
Light Showers, Regen, Grotendeels bewolkt  
Light Showers, Regen, Grotendeels bewolkt  
   Wind: WZW 33.3 km/h<br />Gust to 33.3 km/h
Wind: WZW 33.3 km/h
Gust to 33.3 km/h
Temperatuur: 5°C
Voelt als: 0°C
Dauwpunt: 1°C
Vochtigheid: 76%
Barometer: 1006 hPa
Bewolking: Grotendeels bewolkt
Zicht: 7 km
Bewolking: Licht bewolkt 1500 ft,
Gedeeltelijk bewolkt 2000 ft,
Grotendeels bewolkt 2400 ft
EHVL 030426Z AUTO 25018G32KT 7000 -SHRA FEW015CB SCT020 BKN024 05/01 Q1006 WHT
EDLV - Niederrhein, Germany
Afstand tot: ZZW 139 km
Gewijzigd: 03-12-2021 05:20
Nevel, Bewolking  
Nevel, Bewolking  
   Wind: ZZW 11.1 km/h
Wind: ZZW 11.1 km/h
Temperatuur: 1°C
Voelt als: -2°C
Dauwpunt: 1°C
Vochtigheid: 100%
Barometer: 1010 hPa
Bewolking: Bewolking
Zicht: 4 km
Bewolking: Bewolking 300 ft
EDLV 030420Z 21006KT 4300 BR OVC003 01/01 Q1010
EHKD - De Kooy (navy), Netherlands
Afstand tot: W 144 km
Gewijzigd: 03-12-2021 05:25
Bewolking  
Bewolking  
   Wind: ZW 20.4 km/h
Wind: ZW 20.4 km/h
Temperatuur: 6°C
Voelt als: 2°C
Dauwpunt: 2°C
Vochtigheid: 76%
Barometer: 1006 hPa
Bewolking: Bewolking
Zicht: meer dan 10 km
Bewolking: Gedeeltelijk bewolkt 3100 ft,
Grotendeels bewolkt 3700 ft,
Bewolking 4100 ft
EHKD 030425Z AUTO 23011KT 200V260 9999 SCT031 BKN037 OVC041 06/02 Q1006 BLU
EDLW - Dortmund/Wickede, Germany
Afstand tot: ZZO 150 km
Gewijzigd: 03-12-2021 05:20
Bewolking  
Bewolking  
   Wind: ZW 18.5 km/h
Wind: ZW 18.5 km/h
Temperatuur: 1°C
Voelt als: -4°C
Dauwpunt: 0°C
Vochtigheid: 93%
Barometer: 1010 hPa
Bewolking: Bewolking
Zicht: 7 km
Bewolking: Grotendeels bewolkt 700 ft,
Bewolking 3200 ft
EDLW 030420Z 22010KT 7000 BKN007 OVC032 01/00 Q1010
EHVK - Volkel Rnlafb, Netherlands
Afstand tot: ZZW 149 km
Gewijzigd: 03-12-2021 05:25
Nevel, Bewolking  
Nevel, Bewolking  
   Wind: ZW 18.5 km/h
Wind: ZW 18.5 km/h
Temperatuur: 1°C
Voelt als: -4°C
Dauwpunt: 1°C
Vochtigheid: 100%
Barometer: 1010 hPa
Bewolking: Bewolking
Zicht: 3 km
Bewolking: Grotendeels bewolkt 200 ft,
Bewolking 300 ft
EHVK 030425Z AUTO 22010KT 180V250 2600 BR BKN002 OVC003 01/01 Q1010 AMB
EDLW - Dortmund/Wickede, Germany
Afstand tot: ZZO 150 km
Gewijzigd: 03-12-2021 05:20
Bewolking  
Bewolking  
   Wind: ZW 18.5 km/h
Wind: ZW 18.5 km/h
Temperatuur: 1°C
Voelt als: -4°C
Dauwpunt: 0°C
Vochtigheid: 93%
Barometer: 1010 hPa
Bewolking: Bewolking
Zicht: 7 km
Bewolking: Grotendeels bewolkt 700 ft,
Bewolking 3200 ft
EDLW 030420Z 22010KT 7000 BKN007 OVC032 01/00 Q1010
EHMG - L9-Ff-1 Sea, Netherlands
Afstand tot: NW 155 km
Gewijzigd: 03-12-2021 05:25
Licht bewolkt  
Licht bewolkt  
   Wind: WZW 37 km/h
Wind: WZW 37 km/h
Temperatuur: 7°C
Voelt als: 2°C
Dauwpunt: 2°C
Vochtigheid: 71%
Barometer: 1006 hPa
Bewolking: Licht bewolkt
Zicht: meer dan 10 km
Bewolking: Licht bewolkt 2200 ft
EHMG 030425Z AUTO 25020KT 9999 FEW022 07/02 Q1006
ETHB - Buckeburg(Ger-Ar, Germany
Afstand tot: OZO 161 km
Gewijzigd: 03-12-2021 05:20
Grotendeels bewolkt  
Grotendeels bewolkt  
   Wind: WZW 16.7 km/h
Wind: WZW 16.7 km/h
Temperatuur: 0°C
Voelt als: -4°C
Dauwpunt: -1°C
Vochtigheid: 93%
Barometer: 1008 hPa
Bewolking: Grotendeels bewolkt
Zicht: 7 km
Bewolking: Grotendeels bewolkt 700 ft
ETHB 030420Z 25009KT 7000 BKN007 M00/M01 Q1008 GRN
ETMN - Nordholz (ger-Na, Germany
Afstand tot: NO 164 km
Gewijzigd: 03-12-2021 05:20
Grotendeels bewolkt  
Grotendeels bewolkt  
   Wind: ZW 18.5 km/h
Wind: ZW 18.5 km/h
Temperatuur: 1°C
Voelt als: -4°C
Dauwpunt: 0°C
Vochtigheid: 93%
Barometer: 1004 hPa
Bewolking: Grotendeels bewolkt
Zicht: meer dan 10 km
Bewolking: Licht bewolkt 3000 ft,
Gedeeltelijk bewolkt 4400 ft,
Grotendeels bewolkt 13000 ft
ETMN 030420Z 23010KT 9999 FEW030 SCT044 BKN130 01/00 Q1004 BLACKBLU
EDDL - Duesseldorf, Germany
Afstand tot: Z 165 km
Gewijzigd: 03-12-2021 05:20
Grotendeels bewolkt  
Grotendeels bewolkt  
   Wind: ZZW 16.7 km/h
Wind: ZZW 16.7 km/h
Temperatuur: 2°C
Voelt als: -2°C
Dauwpunt: 1°C
Vochtigheid: 93%
Barometer: 1011 hPa
Bewolking: Grotendeels bewolkt
Zicht: 7 km
Bewolking: Grotendeels bewolkt 500 ft
EDDL 030420Z 21009KT 7000 BKN005 02/01 Q1011 NOSIG
EDLN - Monchengladbach, Germany
Afstand tot: Z 174 km
Gewijzigd: 03-12-2021 05:20
Bewolking  
Bewolking  
   Wind: ZW 11.1 km/h
Wind: ZW 11.1 km/h
Temperatuur: 2°C
Voelt als: -1°C
Dauwpunt: 1°C
Vochtigheid: 93%
Barometer: 1011 hPa
Bewolking: Bewolking
Zicht: meer dan 10 km
Bewolking: Bewolking 700 ft
EDLN 030420Z AUTO 22006KT 190V260 9999 // OVC007/// 02/01 Q1011

Script ontwikkeld door  Saratoga-weather.org Aangepast voor de template door  Weerstation Leuven

U vindt ons ook hier:

Het Weer Aktueel

European Weather Network

Weather Underground

Wetterpage 24

Apparatuur in gebruik:

Weerstation
Davis VP2

Weerprogramma
Meteohub

Hardware
RaspberryPI, Wireless Weather Envoy, MeteoStick, TP-Link MR3020

Leverancier
Weerhuisje.nl weerstations

Davis VP2

Meteohub

RaspberryPI, Wireless Weather Envoy, MeteoStick, TP-Link MR3020

Weerhuisje.nl weerstations